createdAt,value
2022-12-31T00:01:26.261Z,0.88
2022-12-31T00:03:54.361Z,1.00
2022-12-31T00:06:25.361Z,1.20
2022-12-31T00:08:52.933Z,1.10
2022-12-31T00:11:19.833Z,1.00
2022-12-31T00:13:46.820Z,0.88
2022-12-31T00:16:19.125Z,0.80
2022-12-31T00:18:47.397Z,0.77
2022-12-31T00:21:14.505Z,0.90
2022-12-31T00:23:41.227Z,1.00
2022-12-31T00:26:13.679Z,1.15
2022-12-31T00:28:41.623Z,1.00
2022-12-31T00:31:09.456Z,0.90
2022-12-31T00:33:36.549Z,0.90
2022-12-31T00:36:14.822Z,1.05
2022-12-31T00:38:43.516Z,1.00
2022-12-31T00:41:10.167Z,0.93
2022-12-31T00:43:37.022Z,1.10
2022-12-31T00:46:04.269Z,1.00
2022-12-31T00:48:30.832Z,1.08
2022-12-31T00:50:57.797Z,0.98
2022-12-31T00:53:25.471Z,1.10
2022-12-31T00:55:52.679Z,0.90
2022-12-31T00:58:18.963Z,0.90
2022-12-31T01:00:45.293Z,1.20
2022-12-31T01:03:11.650Z,0.88
2022-12-31T01:05:38.119Z,1.10
2022-12-31T01:08:05.455Z,1.17
2022-12-31T01:10:50.258Z,1.10
2022-12-31T01:13:16.630Z,1.00
2022-12-31T01:15:42.994Z,1.02
2022-12-31T01:18:09.618Z,1.00
2022-12-31T01:20:37.843Z,1.40
2022-12-31T01:23:04.369Z,1.17
2022-12-31T01:25:30.801Z,1.05
2022-12-31T01:27:57.081Z,1.10
2022-12-31T01:30:23.378Z,1.20
2022-12-31T01:32:49.711Z,1.23
2022-12-31T01:35:16.195Z,1.25
2022-12-31T01:37:42.477Z,1.00
2022-12-31T01:40:09.029Z,1.08
2022-12-31T01:42:35.369Z,1.10
2022-12-31T01:45:03.386Z,1.08
2022-12-31T01:47:37.716Z,0.95
2022-12-31T01:50:16.189Z,1.08
2022-12-31T01:52:46.538Z,1.10
2022-12-31T01:55:30.130Z,1.10
2022-12-31T01:58:04.875Z,0.88
2022-12-31T02:00:32.897Z,1.10
2022-12-31T02:02:59.687Z,1.00
2022-12-31T02:05:41.010Z,1.10
2022-12-31T02:08:07.896Z,0.90
2022-12-31T02:10:34.567Z,1.00
2022-12-31T02:13:01.407Z,0.80
2022-12-31T02:15:57.806Z,0.93
2022-12-31T02:18:35.000Z,1.00
2022-12-31T02:21:03.639Z,1.00
2022-12-31T02:23:59.185Z,1.30
2022-12-31T02:26:31.476Z,1.35
2022-12-31T02:29:47.886Z,0.93
2022-12-31T02:32:55.160Z,1.00
2022-12-31T02:35:30.449Z,0.82
2022-12-31T02:38:10.204Z,0.93
2022-12-31T02:40:38.613Z,1.15
2022-12-31T02:43:07.808Z,1.17
2022-12-31T02:48:22.229Z,1.00
2022-12-31T02:51:12.838Z,1.00
2022-12-31T02:54:02.604Z,1.30
2022-12-31T02:56:44.330Z,1.10
2022-12-31T02:59:47.366Z,0.90
2022-12-31T03:02:19.505Z,0.90
2022-12-31T03:04:52.372Z,1.10
2022-12-31T03:07:22.569Z,0.95
2022-12-31T03:09:49.747Z,1.00
2022-12-31T03:12:36.597Z,0.88
2022-12-31T03:15:06.518Z,1.13
2022-12-31T03:17:33.892Z,1.08
2022-12-31T03:20:21.989Z,1.17
2022-12-31T03:22:48.309Z,1.15
2022-12-31T03:25:38.875Z,1.48
2022-12-31T03:28:14.706Z,0.90
2022-12-31T03:30:44.465Z,1.00
2022-12-31T03:33:11.367Z,1.10
2022-12-31T03:35:40.362Z,1.08
2022-12-31T03:38:07.404Z,1.00
2022-12-31T03:40:38.648Z,1.25
2022-12-31T03:43:04.962Z,1.08
2022-12-31T03:45:31.320Z,1.00
2022-12-31T03:47:57.696Z,1.17
2022-12-31T03:50:24.070Z,1.10
2022-12-31T03:52:50.497Z,1.38
2022-12-31T03:55:16.861Z,1.48
2022-12-31T03:57:43.239Z,1.30
2022-12-31T04:00:13.379Z,1.58
2022-12-31T04:02:40.061Z,1.30
2022-12-31T04:05:07.653Z,1.40
2022-12-31T04:07:34.028Z,1.30
2022-12-31T04:10:00.351Z,1.60
2022-12-31T04:12:26.712Z,1.02
2022-12-31T04:14:53.028Z,1.35
2022-12-31T04:17:19.344Z,1.00
2022-12-31T04:19:45.761Z,1.05
2022-12-31T04:22:12.104Z,1.17
2022-12-31T04:24:38.430Z,1.13
2022-12-31T04:27:07.821Z,1.00
2022-12-31T04:29:35.679Z,1.10
2022-12-31T04:32:02.404Z,1.00
2022-12-31T04:34:28.756Z,1.27
2022-12-31T04:36:55.089Z,1.08
2022-12-31T04:39:21.551Z,0.90
2022-12-31T04:41:48.072Z,0.82
2022-12-31T04:44:14.517Z,1.08
2022-12-31T04:46:41.150Z,1.13
2022-12-31T04:49:07.529Z,0.90
2022-12-31T04:51:34.403Z,1.02
2022-12-31T04:54:01.146Z,1.10
2022-12-31T04:56:28.716Z,0.98
2022-12-31T04:58:55.322Z,0.98
2022-12-31T05:01:22.242Z,1.13
2022-12-31T05:03:49.243Z,1.10
2022-12-31T05:06:18.857Z,0.90
2022-12-31T05:08:45.504Z,0.85
2022-12-31T05:11:12.080Z,0.98
2022-12-31T05:13:39.133Z,0.80
2022-12-31T05:16:06.926Z,1.02
2022-12-31T05:18:34.044Z,1.02
2022-12-31T05:21:00.660Z,0.88
2022-12-31T05:23:27.017Z,0.70
2022-12-31T05:25:53.545Z,0.90
2022-12-31T05:28:20.132Z,1.05
2022-12-31T05:30:50.325Z,1.50
2022-12-31T05:33:18.537Z,1.00
2022-12-31T05:35:45.411Z,1.40
2022-12-31T05:38:11.963Z,1.02
2022-12-31T05:40:38.396Z,1.10
2022-12-31T05:43:04.697Z,1.02
2022-12-31T05:45:31.536Z,1.27
2022-12-31T05:47:58.369Z,1.00
2022-12-31T05:50:24.733Z,1.17
2022-12-31T05:52:51.068Z,0.80
2022-12-31T05:55:17.617Z,0.90
2022-12-31T05:57:43.908Z,1.15
2022-12-31T06:00:11.355Z,1.05
2022-12-31T06:02:37.693Z,1.02
2022-12-31T06:05:05.006Z,1.15
2022-12-31T06:07:31.403Z,1.10
2022-12-31T06:09:57.777Z,0.80
2022-12-31T06:12:24.194Z,0.88
2022-12-31T06:14:50.530Z,0.93
2022-12-31T06:17:16.880Z,1.05
2022-12-31T06:19:43.203Z,1.00
2022-12-31T06:22:09.501Z,0.90
2022-12-31T06:24:35.833Z,0.88
2022-12-31T06:27:02.140Z,0.90
2022-12-31T06:29:28.480Z,0.88
2022-12-31T06:31:54.757Z,0.70
2022-12-31T06:34:21.053Z,0.90
2022-12-31T06:36:47.372Z,0.80
2022-12-31T06:39:13.728Z,0.85
2022-12-31T06:41:40.144Z,1.10
2022-12-31T06:44:06.459Z,1.08
2022-12-31T06:46:32.777Z,0.82
2022-12-31T06:48:59.432Z,0.82
2022-12-31T06:51:25.768Z,1.00
2022-12-31T06:53:52.299Z,0.82
2022-12-31T06:56:23.367Z,0.88
2022-12-31T06:58:52.702Z,0.70
2022-12-31T07:01:37.843Z,0.88
2022-12-31T07:04:33.299Z,1.65
2022-12-31T07:07:10.251Z,0.98
2022-12-31T07:09:40.952Z,1.23
2022-12-31T07:12:36.043Z,1.15
2022-12-31T07:15:10.522Z,1.15
2022-12-31T07:17:39.600Z,0.80
2022-12-31T07:22:41.455Z,0.90
2022-12-31T07:25:12.664Z,0.80
2022-12-31T07:27:50.392Z,1.00
2022-12-31T07:30:24.508Z,0.80
2022-12-31T07:33:12.231Z,1.15
2022-12-31T07:35:53.853Z,0.80
2022-12-31T07:38:59.268Z,0.90
2022-12-31T07:41:46.592Z,0.93
2022-12-31T07:44:51.485Z,0.85
2022-12-31T07:47:25.027Z,1.20
2022-12-31T07:49:51.882Z,1.00
2022-12-31T07:52:18.813Z,1.00
2022-12-31T07:54:45.634Z,1.33
2022-12-31T07:57:14.116Z,1.05
2022-12-31T08:00:13.334Z,1.10
2022-12-31T08:03:13.931Z,1.02
2022-12-31T08:06:11.493Z,0.85
2022-12-31T08:08:58.334Z,1.05
2022-12-31T08:11:56.780Z,1.00
2022-12-31T08:14:25.059Z,1.25
2022-12-31T08:16:52.150Z,1.17
2022-12-31T08:19:32.503Z,1.08
2022-12-31T08:22:23.539Z,1.05
2022-12-31T08:25:12.845Z,1.50
2022-12-31T08:27:45.973Z,1.00
2022-12-31T08:30:16.073Z,1.08
2022-12-31T08:33:03.317Z,1.30
2022-12-31T08:35:58.081Z,1.08
2022-12-31T08:38:50.363Z,1.00
2022-12-31T08:41:21.605Z,1.15
2022-12-31T08:44:01.620Z,1.33
2022-12-31T08:46:57.753Z,1.30
2022-12-31T08:49:27.477Z,1.20
2022-12-31T08:51:54.527Z,1.17
2022-12-31T08:54:21.067Z,1.20
2022-12-31T08:57:09.633Z,1.20
2022-12-31T08:59:55.831Z,1.08
2022-12-31T09:02:47.720Z,1.05
2022-12-31T09:05:32.742Z,1.20
2022-12-31T09:08:08.112Z,1.33
2022-12-31T09:10:59.485Z,1.45
2022-12-31T09:13:41.860Z,1.33
2022-12-31T09:16:15.359Z,0.90
2022-12-31T09:18:42.533Z,1.15
2022-12-31T09:21:11.359Z,1.13
2022-12-31T09:23:38.125Z,1.45
2022-12-31T09:26:28.706Z,1.08
2022-12-31T09:29:10.260Z,1.52
2022-12-31T09:31:51.827Z,1.40
2022-12-31T09:34:37.203Z,1.45
2022-12-31T09:37:14.705Z,1.60
2022-12-31T09:39:43.829Z,1.27
2022-12-31T09:42:49.908Z,1.30
2022-12-31T09:45:31.423Z,1.10
2022-12-31T09:48:41.280Z,1.13
2022-12-31T09:51:48.921Z,1.25
2022-12-31T09:54:34.035Z,1.35
2022-12-31T09:57:30.988Z,1.10
2022-12-31T10:00:05.886Z,3.63
2022-12-31T10:03:04.492Z,1.52
2022-12-31T10:05:59.389Z,1.58
2022-12-31T10:11:19.288Z,1.42
2022-12-31T10:14:19.771Z,1.50
2022-12-31T10:17:11.037Z,1.27
2022-12-31T10:19:59.077Z,1.20
2022-12-31T10:22:57.987Z,1.45
2022-12-31T10:25:46.494Z,1.13
2022-12-31T10:28:35.485Z,1.10
2022-12-31T10:31:39.600Z,1.30
2022-12-31T10:34:34.240Z,1.33
2022-12-31T10:37:38.674Z,0.98
2022-12-31T10:40:47.140Z,1.10
2022-12-31T10:43:51.329Z,1.00
2022-12-31T10:46:33.134Z,1.13
2022-12-31T10:49:17.848Z,1.20
2022-12-31T10:52:02.612Z,1.23
2022-12-31T10:54:47.541Z,1.10
2022-12-31T10:57:44.667Z,1.20
2022-12-31T11:00:12.856Z,1.27
2022-12-31T11:03:31.353Z,1.35
2022-12-31T11:06:30.307Z,1.20
2022-12-31T11:09:15.461Z,1.00
2022-12-31T11:12:04.679Z,1.30
2022-12-31T11:15:01.396Z,1.08
2022-12-31T11:17:57.139Z,1.30
2022-12-31T11:20:56.118Z,1.05
2022-12-31T11:23:37.908Z,1.15
2022-12-31T11:28:53.706Z,1.25
2022-12-31T11:31:28.973Z,1.50
2022-12-31T11:36:56.399Z,1.10
2022-12-31T11:39:41.207Z,0.85
2022-12-31T11:42:16.196Z,1.10
2022-12-31T11:45:24.587Z,1.17
2022-12-31T11:48:32.944Z,1.02
2022-12-31T11:51:23.610Z,1.25
2022-12-31T11:54:25.588Z,1.27
2022-12-31T11:57:01.116Z,1.25
2022-12-31T11:59:27.464Z,1.40
2022-12-31T12:02:16.977Z,1.05
2022-12-31T12:04:44.437Z,1.10
2022-12-31T12:07:14.315Z,1.38
2022-12-31T12:09:43.657Z,1.58
2022-12-31T12:12:10.884Z,1.13
2022-12-31T12:14:40.846Z,1.17
2022-12-31T12:17:16.334Z,1.30
2022-12-31T12:19:47.474Z,1.10
2022-12-31T12:22:23.541Z,0.93
2022-12-31T12:25:03.040Z,1.30
2022-12-31T12:27:32.801Z,1.27
2022-12-31T12:30:27.342Z,1.15
2022-12-31T12:33:04.651Z,1.25
2022-12-31T12:35:35.083Z,1.25
2022-12-31T12:38:05.543Z,1.08
2022-12-31T12:40:34.592Z,1.20
2022-12-31T12:43:04.701Z,1.08
2022-12-31T12:45:49.157Z,1.17
2022-12-31T12:48:31.264Z,1.20
2022-12-31T12:50:58.094Z,1.65
2022-12-31T12:53:45.362Z,1.17
2022-12-31T12:56:46.332Z,1.10
2022-12-31T12:59:54.399Z,1.20
2022-12-31T13:02:56.392Z,1.10
2022-12-31T13:08:35.184Z,1.17
2022-12-31T13:11:04.615Z,1.20
2022-12-31T13:13:50.227Z,1.10
2022-12-31T13:16:46.118Z,1.25
2022-12-31T13:20:16.147Z,1.15
2022-12-31T13:23:06.503Z,0.90
2022-12-31T13:26:15.008Z,1.30
2022-12-31T13:28:43.322Z,1.50
2022-12-31T13:31:15.058Z,1.30
2022-12-31T13:33:48.072Z,1.02
2022-12-31T13:36:19.281Z,1.02
2022-12-31T13:38:50.657Z,4.22
2022-12-31T13:41:36.520Z,2.38
2022-12-31T13:44:16.397Z,1.35
2022-12-31T13:47:06.016Z,1.88
2022-12-31T13:49:46.469Z,1.38
2022-12-31T13:52:40.108Z,0.95
2022-12-31T13:55:16.972Z,1.15
2022-12-31T13:58:04.839Z,1.08
2022-12-31T14:00:40.982Z,1.10
2022-12-31T14:03:22.210Z,1.30
2022-12-31T14:05:54.989Z,0.90
2022-12-31T14:08:21.600Z,1.13
2022-12-31T14:11:08.465Z,1.40
2022-12-31T14:13:58.992Z,1.58
2022-12-31T14:16:55.272Z,1.38
2022-12-31T14:19:59.242Z,1.58
2022-12-31T14:22:47.336Z,2.90
2022-12-31T14:25:28.999Z,1.35
2022-12-31T14:27:57.414Z,1.38
2022-12-31T14:30:32.905Z,1.35
2022-12-31T14:35:35.434Z,1.70
2022-12-31T14:38:27.675Z,1.77
2022-12-31T14:41:15.447Z,2.58
2022-12-31T14:44:08.463Z,2.28
2022-12-31T14:46:53.382Z,1.70
2022-12-31T14:49:28.851Z,1.50
2022-12-31T14:54:44.903Z,1.38
2022-12-31T14:57:38.930Z,1.90
2022-12-31T15:00:28.517Z,1.40
2022-12-31T15:02:57.188Z,1.10
2022-12-31T15:05:26.738Z,1.02
2022-12-31T15:08:18.458Z,1.42
2022-12-31T15:10:57.885Z,1.40
2022-12-31T15:14:03.482Z,1.40
2022-12-31T15:16:54.074Z,1.25
2022-12-31T15:19:48.162Z,1.30
2022-12-31T15:22:43.368Z,1.20
2022-12-31T15:25:24.082Z,1.27
2022-12-31T15:27:51.249Z,1.25
2022-12-31T15:30:35.440Z,1.10
2022-12-31T15:33:05.410Z,1.23
2022-12-31T15:35:51.355Z,1.35
2022-12-31T15:38:41.740Z,1.55
2022-12-31T15:41:20.576Z,1.48
2022-12-31T15:43:52.345Z,1.77
2022-12-31T15:46:23.347Z,1.50
2022-12-31T15:49:01.992Z,1.30
2022-12-31T15:51:36.805Z,1.73
2022-12-31T15:54:04.935Z,2.00
2022-12-31T15:56:37.939Z,2.17
2022-12-31T15:59:11.179Z,1.83
2022-12-31T16:01:43.727Z,1.80
2022-12-31T16:04:30.991Z,1.40
2022-12-31T16:07:02.470Z,1.55
2022-12-31T16:09:34.577Z,1.65
2022-12-31T16:12:03.671Z,1.70
2022-12-31T16:17:04.561Z,1.85
2022-12-31T16:19:34.613Z,1.90
2022-12-31T16:22:08.064Z,1.85
2022-12-31T16:24:48.910Z,1.88
2022-12-31T16:27:26.755Z,1.95
2022-12-31T16:29:59.605Z,1.75
2022-12-31T16:32:33.762Z,2.20
2022-12-31T16:35:01.316Z,2.47
2022-12-31T16:37:28.613Z,1.90
2022-12-31T16:39:57.910Z,1.80
2022-12-31T16:42:31.886Z,2.28
2022-12-31T16:45:20.428Z,2.10
2022-12-31T16:47:48.524Z,2.17
2022-12-31T16:50:18.669Z,2.67
2022-12-31T16:52:48.744Z,2.95
2022-12-31T16:55:18.852Z,2.72
2022-12-31T16:57:53.999Z,2.47
2022-12-31T17:00:23.347Z,2.80
2022-12-31T17:03:17.249Z,2.72
2022-12-31T17:06:13.670Z,2.97
2022-12-31T17:08:55.536Z,2.95
2022-12-31T17:11:31.573Z,2.88
2022-12-31T17:14:07.363Z,2.83
2022-12-31T17:16:36.733Z,3.13
2022-12-31T17:19:03.471Z,3.17
2022-12-31T17:21:31.756Z,3.35
2022-12-31T17:24:04.182Z,3.15
2022-12-31T17:26:33.532Z,15.30
2022-12-31T17:29:02.244Z,3.15
2022-12-31T17:31:37.218Z,4.10
2022-12-31T17:34:22.595Z,3.85
2022-12-31T17:37:14.467Z,4.07
2022-12-31T17:39:49.577Z,4.22
2022-12-31T17:42:29.035Z,3.97
2022-12-31T17:45:18.015Z,4.13
2022-12-31T17:47:54.040Z,5.10
2022-12-31T17:50:25.064Z,8.02
2022-12-31T17:53:14.298Z,7.22
2022-12-31T17:55:42.343Z,4.93
2022-12-31T17:58:17.778Z,3.65
2022-12-31T18:00:44.293Z,3.67
2022-12-31T18:03:10.730Z,3.75
2022-12-31T18:05:37.179Z,4.10
2022-12-31T18:08:03.707Z,4.20
2022-12-31T18:10:35.031Z,5.53
2022-12-31T18:13:04.743Z,7.75
2022-12-31T18:15:36.688Z,5.15
2022-12-31T18:18:22.553Z,6.85
2022-12-31T18:21:01.084Z,6.35
2022-12-31T18:23:32.519Z,7.35
2022-12-31T18:25:58.943Z,7.30
2022-12-31T18:28:26.459Z,6.97
2022-12-31T18:30:52.902Z,7.05
2022-12-31T18:33:22.341Z,7.05
2022-12-31T18:36:09.133Z,8.90
2022-12-31T18:38:36.164Z,7.90
2022-12-31T18:41:02.466Z,6.70
2022-12-31T18:43:28.784Z,5.93
2022-12-31T18:45:55.231Z,5.57
2022-12-31T18:48:21.592Z,5.40
2022-12-31T18:50:48.242Z,5.05
2022-12-31T18:53:19.939Z,4.68
2022-12-31T18:55:49.506Z,4.28
2022-12-31T18:58:15.972Z,4.57
2022-12-31T19:00:44.612Z,5.00
2022-12-31T19:03:16.235Z,4.30
2022-12-31T19:05:43.202Z,4.78
2022-12-31T19:08:09.543Z,3.97
2022-12-31T19:10:35.913Z,4.57
2022-12-31T19:13:02.333Z,5.65
2022-12-31T19:15:38.835Z,4.82
2022-12-31T19:18:05.319Z,4.07
2022-12-31T19:20:31.694Z,4.20
2022-12-31T19:22:58.189Z,4.82
2022-12-31T19:25:27.627Z,4.18
2022-12-31T19:27:54.044Z,4.82
2022-12-31T19:30:34.819Z,4.82
2022-12-31T19:33:01.108Z,4.97
2022-12-31T19:35:27.798Z,12.02
2022-12-31T19:37:55.255Z,6.82
2022-12-31T19:40:28.103Z,5.45
2022-12-31T19:42:55.801Z,4.95
2022-12-31T19:45:24.889Z,4.68
2022-12-31T19:50:24.176Z,4.45
2022-12-31T19:52:53.125Z,5.00
2022-12-31T19:55:21.506Z,5.60
2022-12-31T19:57:48.768Z,8.43
2022-12-31T20:00:19.901Z,6.20
2022-12-31T20:02:48.310Z,5.05
2022-12-31T20:05:16.293Z,5.88
2022-12-31T20:07:42.659Z,5.28
2022-12-31T20:10:10.745Z,6.03
2022-12-31T20:12:43.915Z,5.43
2022-12-31T20:15:12.046Z,5.45
2022-12-31T20:17:38.553Z,6.05
2022-12-31T20:20:06.671Z,7.18
2022-12-31T20:22:33.273Z,6.97
2022-12-31T20:24:59.587Z,7.88
2022-12-31T20:27:25.868Z,7.00
2022-12-31T20:29:52.158Z,6.57
2022-12-31T20:32:18.679Z,5.78
2022-12-31T20:34:44.965Z,5.65
2022-12-31T20:37:11.363Z,6.05
2022-12-31T20:39:37.667Z,5.68
2022-12-31T20:42:04.533Z,5.75
2022-12-31T20:44:31.044Z,6.55
2022-12-31T20:46:57.341Z,7.70
2022-12-31T20:49:44.848Z,6.68
2022-12-31T20:52:10.125Z,6.97
2022-12-31T20:54:37.355Z,9.00
2022-12-31T20:57:03.796Z,8.05
2022-12-31T20:59:30.118Z,7.32
2022-12-31T21:02:20.436Z,6.35
2022-12-31T21:04:47.731Z,6.88
2022-12-31T21:07:14.102Z,6.80
2022-12-31T21:09:40.482Z,7.47
2022-12-31T21:12:25.923Z,7.78
2022-12-31T21:14:52.609Z,7.28
2022-12-31T21:17:19.028Z,7.88
2022-12-31T21:19:45.678Z,8.18
2022-12-31T21:22:12.190Z,12.38
2022-12-31T21:24:39.021Z,9.73
2022-12-31T21:27:06.032Z,9.05
2022-12-31T21:29:34.834Z,8.45
2022-12-31T21:32:02.073Z,10.23
2022-12-31T21:34:28.435Z,9.88
2022-12-31T21:36:54.831Z,9.52
2022-12-31T21:39:21.317Z,10.23
2022-12-31T21:41:53.853Z,8.60
2022-12-31T21:44:25.349Z,8.35
2022-12-31T21:47:39.825Z,8.18
2022-12-31T21:50:07.391Z,7.75
2022-12-31T21:52:35.259Z,7.30
2022-12-31T21:55:22.523Z,7.03
2022-12-31T22:00:55.656Z,8.02
2022-12-31T22:03:24.897Z,9.23
2022-12-31T22:06:01.677Z,7.40
2022-12-31T22:08:30.284Z,8.18
2022-12-31T22:10:57.148Z,8.35
2022-12-31T22:13:24.102Z,7.47
2022-12-31T22:15:56.348Z,8.65
2022-12-31T22:18:27.792Z,8.77
2022-12-31T22:21:02.831Z,8.73
2022-12-31T22:23:30.270Z,8.45
2022-12-31T22:25:56.587Z,10.23
2022-12-31T22:28:39.850Z,12.52
2022-12-31T22:31:07.993Z,10.57
2022-12-31T22:33:34.407Z,11.13
2022-12-31T22:36:03.316Z,11.27
2022-12-31T22:38:32.613Z,10.07
2022-12-31T22:41:14.386Z,9.77
2022-12-31T22:43:46.564Z,9.73
2022-12-31T22:46:16.533Z,12.18
2022-12-31T22:48:43.133Z,10.90
2022-12-31T22:51:11.002Z,11.55
2022-12-31T22:53:39.462Z,11.48
2022-12-31T22:56:06.539Z,10.57
2022-12-31T22:58:32.953Z,10.80
2022-12-31T23:00:59.375Z,12.35
2022-12-31T23:03:25.812Z,11.88
2022-12-31T23:05:52.854Z,18.67
2022-12-31T23:08:23.698Z,33.33
2022-12-31T23:11:00.854Z,56.40
2022-12-31T23:13:57.545Z,122.03
2022-12-31T23:16:45.119Z,131.32
2022-12-31T23:19:31.274Z,146.25
2022-12-31T23:22:16.567Z,148.55
2022-12-31T23:24:46.050Z,136.38
2022-12-31T23:27:12.442Z,135.75
2022-12-31T23:29:46.050Z,125.85
2022-12-31T23:32:16.586Z,136.05
2022-12-31T23:34:44.738Z,145.80
2022-12-31T23:37:14.668Z,181.05
2022-12-31T23:39:41.750Z,168.85
2022-12-31T23:42:17.033Z,140.88
2022-12-31T23:44:43.339Z,169.30
2022-12-31T23:47:09.744Z,149.75
2022-12-31T23:49:36.426Z,157.73
2022-12-31T23:52:03.111Z,164.13
2022-12-31T23:54:29.507Z,176.05
2022-12-31T23:56:55.871Z,177.88
2022-12-31T23:59:22.140Z,186.60
